Time;durP1;ratioP1;P1;durP2;ratioP2;P2;SDS_P1;SDS_P2;PMS_P1;PMS_P2;Temp;Humidity;BMP_temperature;BMP_pressure;BME280_temperature;BME280_humidity;BME280_pressure;Samples;Min_cycle;Max_cycle;Signal;HPM_P1;HPM_P2
2022/12/27 00:00:16;;;;;;;3.53;0.25;;;11.90;99.90;;;;;;5030714;28;20242;-91
2022/12/27 00:02:44;;;;;;;0.40;0.40;;;11.90;99.90;;;;;;5030156;28;20203;-91
2022/12/27 00:05:15;;;;;;;0.55;0.52;;;11.90;99.90;;;;;;5030572;28;20265;-92
2022/12/27 00:07:47;;;;;;;0.50;0.50;;;11.90;99.90;;;;;;5030175;28;20218;-90
2022/12/27 00:10:33;;;;;;;0.30;0.30;;;11.90;99.90;;;;;;5030559;28;20218;-91
2022/12/27 00:16:36;;;;;;;0.43;0.43;;;11.90;99.90;;;;;;4943534;28;20216;-91
2022/12/27 00:19:05;;;;;;;0.47;0.47;;;11.90;99.90;;;;;;5030447;28;20206;-90
2022/12/27 00:21:39;;;;;;;0.38;0.25;;;11.90;99.90;;;;;;5032194;28;20297;-91
2022/12/27 00:24:20;;;;;;;0.30;0.30;;;11.90;99.90;;;;;;5032646;28;20203;-92
2022/12/27 00:27:14;;;;;;;0.35;0.35;;;11.90;99.90;;;;;;5032573;28;20201;-90
2022/12/27 00:33:01;;;;;;;0.40;0.40;;;11.90;99.90;;;;;;5031650;28;20268;-90
2022/12/27 00:35:39;;;;;;;0.20;0.20;;;11.80;99.90;;;;;;5032510;28;20359;-90
2022/12/27 00:38:09;;;;;;;0.38;0.38;;;11.80;99.90;;;;;;5032660;28;20206;-91
2022/12/27 00:40:42;;;;;;;0.63;0.60;;;11.70;99.90;;;;;;5032640;28;20209;-90
2022/12/27 00:43:14;;;;;;;0.60;0.60;;;11.60;99.90;;;;;;5032370;28;20201;-91
2022/12/27 00:45:53;;;;;;;2.03;1.83;;;11.60;99.90;;;;;;5032279;28;20245;-91
2022/12/27 00:48:28;;;;;;;1.65;1.17;;;11.50;99.90;;;;;;5032515;28;20301;-91
2022/12/27 00:51:02;;;;;;;1.92;1.67;;;11.50;99.90;;;;;;5032676;28;20217;-90
2022/12/27 00:53:38;;;;;;;1.63;1.33;;;11.40;99.90;;;;;;5031962;28;20217;-90
2022/12/27 00:56:12;;;;;;;3.95;2.90;;;11.30;99.90;;;;;;5031983;28;20226;-90
2022/12/27 00:58:44;;;;;;;0.98;0.75;;;11.20;99.90;;;;;;5032207;28;20206;-90
2022/12/27 01:01:22;;;;;;;1.90;1.63;;;11.20;99.90;;;;;;5032351;28;20230;-90
2022/12/27 01:03:54;;;;;;;0.35;0.35;;;11.10;99.90;;;;;;5033020;28;20210;-90
2022/12/27 01:06:33;;;;;;;1.58;1.48;;;11.10;99.90;;;;;;5032448;28;20237;-90
2022/12/27 01:09:05;;;;;;;0.98;0.75;;;11.10;99.90;;;;;;5032032;28;20206;-90
2022/12/27 01:11:36;;;;;;;1.60;1.50;;;11.10;99.90;;;;;;5032105;28;20289;-90
2022/12/27 01:14:20;;;;;;;1.40;1.30;;;11.10;99.90;;;;;;5032129;28;20198;-91
2022/12/27 01:16:53;;;;;;;0.75;0.75;;;11.00;99.90;;;;;;5032275;28;20212;-90
2022/12/27 01:19:28;;;;;;;1.83;0.88;;;11.00;99.90;;;;;;5032728;28;20260;-90
2022/12/27 01:22:05;;;;;;;1.70;0.73;;;11.00;99.90;;;;;;5035626;28;20206;-90
2022/12/27 01:24:43;;;;;;;0.95;0.80;;;11.00;99.90;;;;;;5035468;28;20226;-90
2022/12/27 01:27:15;;;;;;;1.70;1.23;;;11.00;99.90;;;;;;5035605;28;20209;-90
2022/12/27 01:29:50;;;;;;;0.95;0.90;;;10.90;99.90;;;;;;5036040;28;20449;-90
2022/12/27 01:32:28;;;;;;;0.55;0.55;;;10.90;99.90;;;;;;5035552;28;20226;-92
2022/12/27 01:34:57;;;;;;;0.70;0.70;;;10.90;99.90;;;;;;5035671;28;20234;-91
2022/12/27 01:37:30;;;;;;;4.90;2.88;;;10.90;99.90;;;;;;5035736;28;20233;-90
2022/12/27 01:40:05;;;;;;;2.45;1.38;;;10.80;99.90;;;;;;5035740;28;20206;-90
2022/12/27 01:42:51;;;;;;;1.40;1.20;;;10.80;99.90;;;;;;5035468;28;20205;-90
2022/12/27 01:45:36;;;;;;;0.50;0.50;;;10.80;99.90;;;;;;5035515;28;20230;-90
2022/12/27 01:48:20;;;;;;;1.13;0.68;;;10.80;99.90;;;;;;5035136;28;20206;-90
2022/12/27 01:50:53;;;;;;;1.88;1.77;;;10.80;99.90;;;;;;5035653;28;20309;-91
2022/12/27 01:53:31;;;;;;;4.25;3.83;;;10.80;99.90;;;;;;5034823;28;20226;-90
2022/12/27 01:56:08;;;;;;;1.25;1.15;;;10.80;99.90;;;;;;5035398;28;20230;-90
2022/12/27 01:58:42;;;;;;;1.30;1.10;;;10.80;99.90;;;;;;5034708;28;20221;-90
2022/12/27 02:01:17;;;;;;;1.55;1.08;;;10.80;99.90;;;;;;5035138;28;20206;-89
2022/12/27 02:03:51;;;;;;;1.52;1.42;;;10.70;99.90;;;;;;5035215;28;20202;-90
2022/12/27 02:06:33;;;;;;;1.67;1.30;;;10.70;99.90;;;;;;5034616;28;20233;-91
2022/12/27 02:09:13;;;;;;;0.75;0.75;;;10.70;99.90;;;;;;5035055;28;20198;-90
2022/12/27 02:12:00;;;;;;;1.60;1.50;;;10.60;99.90;;;;;;5034896;28;20232;-91
2022/12/27 02:14:34;;;;;;;1.27;1.17;;;10.60;99.90;;;;;;5034280;28;20230;-90
2022/12/27 02:17:08;;;;;;;0.75;0.75;;;10.60;99.90;;;;;;5034620;28;20210;-90
2022/12/27 02:19:49;;;;;;;0.80;0.80;;;10.60;99.90;;;;;;5034906;28;20202;-93
2022/12/27 02:25:47;;;;;;;0.60;0.60;;;10.60;99.90;;;;;;5034600;28;20230;-91
2022/12/27 02:28:33;;;;;;;0.80;0.80;;;10.50;99.90;;;;;;5034411;28;20210;-93
2022/12/27 02:31:07;;;;;;;1.63;1.52;;;10.50;99.90;;;;;;5034394;28;20272;-92
2022/12/27 02:33:43;;;;;;;2.20;1.48;;;10.50;99.90;;;;;;5034518;28;20233;-91
2022/12/27 02:36:17;;;;;;;0.52;0.52;;;10.50;99.90;;;;;;5034968;28;20262;-91
2022/12/27 02:38:50;;;;;;;1.17;1.10;;;10.50;99.90;;;;;;5034173;28;20209;-92
2022/12/27 02:53:24;;;;;;;1.95;1.75;;;10.50;99.90;;;;;;5033825;28;20224;-90
2022/12/27 03:09:04;;;;;;;0.50;0.50;;;10.30;99.90;;;;;;5033531;28;20292;-91
2022/12/27 03:17:36;;;;;;;0.80;0.80;;;10.20;99.90;;;;;;5033484;28;20277;-91
2022/12/27 03:26:18;;;;;;;2.13;1.98;;;10.00;99.90;;;;;;4953640;28;20308;-92
2022/12/27 03:34:34;;;;;;;4.45;3.33;;;9.90;99.90;;;;;;4952875;29;20235;-91
2022/12/27 03:40:02;;;;;;;3.90;2.90;;;9.80;99.90;;;;;;4953474;28;20277;-92
2022/12/27 03:46:32;;;;;;;1.73;1.17;;;9.80;99.90;;;;;;4952955;29;20228;-91
2022/12/27 03:48:12;;;;;;;0.77;0.77;;;9.80;99.90;;;;;;4952753;28;20209;-93
2022/12/27 03:50:46;;;;;;;1.83;1.42;;;9.80;99.90;;;;;;4953066;28;20322;-91
2022/12/27 03:53:20;;;;;;;8.05;3.58;;;9.90;99.90;;;;;;4953247;28;20239;-92
2022/12/27 03:55:49;;;;;;;2.80;2.03;;;9.90;99.90;;;;;;4952972;28;20224;-92
2022/12/27 03:58:17;;;;;;;4.13;2.60;;;9.80;99.90;;;;;;4952853;29;20223;-93
2022/12/27 04:00:46;;;;;;;4.13;3.15;;;9.80;99.90;;;;;;4953033;28;20292;-91
2022/12/27 04:03:14;;;;;;;1.10;1.00;;;9.70;99.90;;;;;;5028967;28;20236;-91
2022/12/27 04:05:43;;;;;;;1.63;1.50;;;9.70;99.90;;;;;;5032886;28;20231;-91
2022/12/27 04:35:53;;;;;;;0.75;0.75;;;9.30;99.90;;;;;;5032444;28;20241;-92
2022/12/27 04:38:22;;;;;;;0.80;0.80;;;9.20;99.90;;;;;;5032313;28;20312;-89
2022/12/27 04:55:29;;;;;;;0.88;0.73;;;9.20;99.90;;;;;;5033765;28;20227;-89
2022/12/27 04:58:25;;;;;;;0.85;0.85;;;9.10;99.90;;;;;;5036167;28;20225;-89
2022/12/27 05:03:53;;;;;;;1.27;1.17;;;9.10;99.90;;;;;;5036131;28;20209;-90
2022/12/27 05:06:28;;;;;;;0.65;0.65;;;9.10;99.90;;;;;;5035897;28;20250;-91
2022/12/27 05:14:50;;;;;;;1.10;1.10;;;9.10;99.90;;;;;;5035661;28;20245;-91
2022/12/27 05:17:21;;;;;;;1.20;1.15;;;9.00;99.90;;;;;;5035808;28;20210;-90
2022/12/27 05:19:50;;;;;;;1.00;1.00;;;9.00;99.90;;;;;;5035947;28;20214;-90
2022/12/27 05:27:54;;;;;;;0.93;0.93;;;9.00;99.90;;;;;;5035875;28;20283;-90
2022/12/27 05:30:24;;;;;;;0.55;0.55;;;8.90;99.90;;;;;;5035789;28;20210;-90
2022/12/27 05:32:56;;;;;;;1.70;0.98;;;9.00;99.90;;;;;;5036043;28;20234;-90
2022/12/27 05:35:28;;;;;;;2.17;1.25;;;9.00;99.90;;;;;;5035676;28;20237;-89
2022/12/27 05:37:59;;;;;;;0.85;0.50;;;8.90;99.90;;;;;;5035710;28;20206;-91
2022/12/27 05:40:34;;;;;;;1.00;0.85;;;8.90;99.90;;;;;;5035561;28;20212;-89
2022/12/27 05:43:04;;;;;;;1.55;1.15;;;8.90;99.90;;;;;;5035632;28;20210;-90
2022/12/27 05:45:36;;;;;;;1.73;1.63;;;8.80;99.90;;;;;;5035035;28;20249;-90
2022/12/27 05:48:07;;;;;;;0.65;0.65;;;8.80;99.90;;;;;;5035364;28;20198;-89
2022/12/27 05:50:36;;;;;;;0.93;0.93;;;8.80;99.90;;;;;;5035226;28;20260;-88
2022/12/27 05:53:05;;;;;;;1.27;0.80;;;8.80;99.90;;;;;;5035292;28;20208;-90
2022/12/27 05:55:37;;;;;;;2.63;2.28;;;8.70;99.90;;;;;;5035029;28;20317;-90
2022/12/27 05:58:06;;;;;;;1.02;1.00;;;8.70;99.90;;;;;;5035311;28;20233;-90
2022/12/27 06:00:38;;;;;;;1.10;1.00;;;8.70;99.90;;;;;;5034882;28;20209;-90
2022/12/27 06:03:09;;;;;;;1.38;1.20;;;8.70;99.90;;;;;;5035168;28;20202;-90
2022/12/27 06:05:38;;;;;;;1.60;1.50;;;8.70;99.90;;;;;;5034813;28;20218;-89
2022/12/27 06:08:09;;;;;;;0.50;0.50;;;8.60;99.90;;;;;;5034016;28;20297;-90
2022/12/27 06:10:42;;;;;;;0.60;0.60;;;8.60;99.90;;;;;;5034929;28;20210;-91
2022/12/27 06:13:11;;;;;;;0.73;0.70;;;8.60;99.90;;;;;;5035007;28;20206;-90
2022/12/27 06:15:44;;;;;;;0.95;0.95;;;8.60;99.90;;;;;;5034520;28;20230;-91
2022/12/27 06:18:15;;;;;;;1.73;1.38;;;8.60;99.90;;;;;;5034719;28;20207;-89
2022/12/27 06:20:44;;;;;;;0.73;0.73;;;8.50;99.90;;;;;;5034727;28;20305;-91
2022/12/27 06:23:13;;;;;;;1.30;1.02;;;8.40;99.90;;;;;;5035021;28;20207;-92
2022/12/27 06:25:42;;;;;;;0.65;0.65;;;8.40;99.90;;;;;;5034519;28;20309;-90
2022/12/27 06:28:11;;;;;;;0.45;0.43;;;8.30;99.90;;;;;;5034555;28;20211;-90
2022/12/27 06:30:40;;;;;;;0.60;0.60;;;8.30;99.90;;;;;;5034592;28;20202;-90
2022/12/27 06:33:12;;;;;;;0.57;0.57;;;8.20;99.90;;;;;;5034394;28;20264;-91
2022/12/27 06:35:43;;;;;;;0.70;0.63;;;8.20;99.90;;;;;;5033950;28;20238;-91
2022/12/27 06:38:15;;;;;;;0.68;0.68;;;8.10;99.90;;;;;;5034324;28;20233;-90
2022/12/27 06:40:46;;;;;;;0.30;0.30;;;8.00;99.90;;;;;;5034503;28;20233;-89
2022/12/27 06:43:23;;;;;;;1.17;0.75;;;7.90;99.90;;;;;;5034324;28;20202;-89
2022/12/27 06:45:56;;;;;;;0.70;0.70;;;7.70;99.90;;;;;;5034005;28;20232;-90
2022/12/27 06:48:28;;;;;;;0.80;0.80;;;7.70;99.90;;;;;;5033782;28;20203;-90
2022/12/27 06:50:58;;;;;;;0.70;0.70;;;7.60;99.90;;;;;;5034375;28;20214;-90
2022/12/27 06:53:30;;;;;;;0.57;0.57;;;7.50;99.90;;;;;;5034562;28;20210;-90
2022/12/27 06:56:04;;;;;;;0.88;0.88;;;7.50;99.90;;;;;;5033788;28;20298;-90
2022/12/27 06:58:39;;;;;;;0.80;0.80;;;7.40;99.90;;;;;;5034015;28;20293;-90
2022/12/27 07:01:17;;;;;;;1.13;1.02;;;7.40;99.90;;;;;;5034070;28;20213;-91
2022/12/27 07:03:50;;;;;;;1.23;1.13;;;7.30;99.90;;;;;;5033879;28;20266;-89
2022/12/27 07:06:25;;;;;;;1.33;1.00;;;7.30;99.90;;;;;;5034073;28;20226;-89
2022/12/27 07:08:54;;;;;;;3.30;2.90;;;7.20;99.90;;;;;;5034149;28;20206;-90
2022/12/27 07:11:24;;;;;;;1.45;1.10;;;7.20;99.90;;;;;;5034063;28;20294;-92
2022/12/27 07:13:59;;;;;;;1.42;1.33;;;7.10;99.90;;;;;;5033626;28;20198;-89
2022/12/27 07:16:29;;;;;;;3.17;2.40;;;7.10;99.90;;;;;;5033306;28;20229;-89
2022/12/27 07:19:00;;;;;;;1.08;1.00;;;7.10;99.90;;;;;;5033410;28;20230;-92
2022/12/27 07:21:30;;;;;;;4.10;1.55;;;7.10;99.90;;;;;;5033626;28;20206;-92
2022/12/27 07:23:58;;;;;;;1.30;1.20;;;7.10;99.90;;;;;;5033519;28;20290;-91
2022/12/27 07:26:29;;;;;;;4.45;3.25;;;7.10;99.90;;;;;;5033439;28;20253;-92
2022/12/27 07:29:00;;;;;;;2.92;2.15;;;7.20;99.90;;;;;;5033598;28;20206;-92
2022/12/27 07:31:30;;;;;;;14.30;7.68;;;7.20;99.90;;;;;;5033679;28;20297;-92
2022/12/27 07:34:01;;;;;;;3.03;2.38;;;7.20;99.90;;;;;;5033379;28;20210;-91
2022/12/27 07:36:35;;;;;;;3.58;3.13;;;7.20;99.90;;;;;;5032964;28;20237;-91
2022/12/27 07:39:04;;;;;;;3.17;2.33;;;7.20;99.90;;;;;;5033061;28;20245;-92
2022/12/27 07:41:32;;;;;;;1.33;1.23;;;7.20;99.90;;;;;;5033420;28;20202;-91
2022/12/27 07:44:02;;;;;;;2.17;1.27;;;7.30;99.90;;;;;;5033378;28;20270;-91
2022/12/27 07:46:31;;;;;;;2.03;1.08;;;7.20;99.90;;;;;;5032578;28;20250;-91
2022/12/27 07:49:00;;;;;;;1.35;1.15;;;7.20;99.90;;;;;;5032744;28;20245;-92
2022/12/27 07:51:29;;;;;;;1.88;1.13;;;7.20;99.90;;;;;;5033137;28;20309;-92
2022/12/27 07:53:59;;;;;;;24.83;1.23;;;7.10;99.90;;;;;;5033164;28;20242;-92
2022/12/27 07:56:28;;;;;;;0.90;0.90;;;7.10;99.90;;;;;;5032821;28;20261;-92
2022/12/27 07:58:58;;;;;;;0.73;0.57;;;7.00;99.90;;;;;;5032799;28;20270;-92
2022/12/27 08:02:02;;;;;;;0.90;0.90;;;7.00;99.90;;;;;;5033761;28;20210;-92
2022/12/27 08:04:18;;;;;;;0.73;0.73;;;7.00;99.90;;;;;;5032910;28;20228;-92
2022/12/27 08:06:47;;;;;;;0.60;0.60;;;7.10;99.90;;;;;;5032845;28;20222;-91
2022/12/27 08:09:29;;;;;;;0.70;0.70;;;7.20;99.90;;;;;;5033346;28;20271;-91
2022/12/27 08:11:57;;;;;;;0.65;0.65;;;7.20;99.90;;;;;;5032947;28;20292;-92
2022/12/27 08:14:25;;;;;;;0.60;0.60;;;7.30;99.90;;;;;;5032403;28;20279;-93
2022/12/27 08:16:56;;;;;;;1.10;0.82;;;7.30;99.90;;;;;;5032148;28;20226;-92
2022/12/27 08:19:24;;;;;;;1.35;1.20;;;7.30;99.90;;;;;;5032803;28;20291;-92
2022/12/27 08:21:53;;;;;;;0.40;0.40;;;7.30;99.90;;;;;;5032958;28;20205;-91
2022/12/27 08:24:23;;;;;;;0.75;0.70;;;7.30;99.90;;;;;;5032562;28;20213;-92
2022/12/27 08:26:52;;;;;;;1.15;1.05;;;7.40;99.90;;;;;;5032294;28;20233;-92
2022/12/27 08:29:20;;;;;;;1.73;0.68;;;7.40;99.90;;;;;;5032171;28;20214;-91
2022/12/27 08:31:49;;;;;;;0.90;0.80;;;7.40;99.90;;;;;;5032516;28;20210;-91
2022/12/27 08:34:18;;;;;;;0.52;0.52;;;7.30;99.90;;;;;;5032780;28;20210;-92
2022/12/27 08:36:49;;;;;;;1.55;0.85;;;7.20;99.90;;;;;;5032598;28;20218;-92
2022/12/27 08:39:25;;;;;;;1.42;1.10;;;7.10;99.90;;;;;;5032509;28;20211;-91
2022/12/27 08:41:53;;;;;;;2.65;2.30;;;7.10;99.90;;;;;;5032423;28;20269;-91
2022/12/27 08:44:22;;;;;;;1.17;1.05;;;7.00;99.90;;;;;;5032211;28;20245;-91
2022/12/27 08:46:51;;;;;;;0.77;0.77;;;6.90;99.90;;;;;;5032351;28;20233;-90
2022/12/27 08:49:22;;;;;;;2.88;1.40;;;6.90;99.90;;;;;;5032496;28;20233;-91
2022/12/27 08:51:51;;;;;;;1.85;0.88;;;6.90;99.90;;;;;;5032420;28;20213;-91
2022/12/27 08:54:20;;;;;;;0.88;0.75;;;6.90;99.90;;;;;;5032384;28;20207;-91
2022/12/27 08:56:50;;;;;;;0.70;0.70;;;6.80;99.90;;;;;;5031996;28;20230;-90
2022/12/27 08:59:19;;;;;;;0.60;0.60;;;6.70;99.90;;;;;;5032460;28;20210;-90
2022/12/27 09:01:47;;;;;;;1.25;1.02;;;6.60;99.90;;;;;;5032352;28;20293;-91
2022/12/27 09:04:16;;;;;;;1.17;1.08;;;6.70;99.90;;;;;;5032315;28;20209;-91
2022/12/27 09:06:45;;;;;;;1.42;1.23;;;6.70;99.90;;;;;;5032623;28;20276;-91
2022/12/27 09:09:17;;;;;;;0.65;0.65;;;6.70;99.90;;;;;;5032466;28;20214;-93
2022/12/27 09:11:46;;;;;;;1.33;1.23;;;6.70;99.90;;;;;;5032461;28;20203;-90
2022/12/27 09:14:17;;;;;;;1.38;1.27;;;6.70;99.90;;;;;;5032454;28;20217;-91
2022/12/27 09:16:45;;;;;;;1.05;1.02;;;6.70;99.90;;;;;;5031700;28;20301;-91
2022/12/27 09:19:14;;;;;;;1.27;1.17;;;6.70;99.90;;;;;;5032172;28;20244;-92
2022/12/27 09:21:42;;;;;;;1.10;1.00;;;6.70;99.90;;;;;;5032251;28;20236;-91
2022/12/27 09:24:12;;;;;;;1.00;1.00;;;6.70;99.90;;;;;;5032966;28;20202;-90
2022/12/27 09:26:41;;;;;;;1.23;1.13;;;6.70;99.90;;;;;;5033939;28;20210;-90
2022/12/27 09:29:11;;;;;;;1.00;1.00;;;6.70;99.90;;;;;;5032109;28;20209;-90
2022/12/27 09:31:41;;;;;;;0.80;0.80;;;6.70;99.90;;;;;;5031911;28;20210;-90
2022/12/27 09:34:10;;;;;;;1.85;0.63;;;6.70;99.90;;;;;;5032321;28;20203;-90
2022/12/27 09:36:40;;;;;;;0.60;0.60;;;6.70;99.90;;;;;;5031977;28;20226;-93
2022/12/27 09:39:12;;;;;;;1.10;0.90;;;6.70;99.90;;;;;;5032346;28;20217;-90
2022/12/27 09:42:01;;;;;;;0.65;0.65;;;6.70;99.90;;;;;;5032784;28;20210;-89
2022/12/27 09:44:56;;;;;;;0.60;0.60;;;6.70;99.90;;;;;;5035097;28;20226;-92
2022/12/27 09:47:33;;;;;;;0.70;0.70;;;6.70;99.90;;;;;;5035245;28;20518;-91
2022/12/27 09:50:05;;;;;;;3.42;1.00;;;6.70;99.90;;;;;;5035094;28;20199;-90
2022/12/27 09:52:37;;;;;;;8.40;0.95;;;6.80;99.90;;;;;;5035691;28;20214;-89
2022/12/27 09:55:15;;;;;;;1.00;1.00;;;6.80;99.90;;;;;;5035238;28;20226;-92
2022/12/27 09:57:45;;;;;;;0.55;0.55;;;6.80;99.90;;;;;;5034974;28;20229;-90
2022/12/27 10:00:18;;;;;;;1.15;0.80;;;6.80;99.90;;;;;;5035288;28;20210;-90
2022/12/27 10:03:15;;;;;;;2.28;1.60;;;6.80;99.90;;;;;;5035274;28;20236;-90
2022/12/27 10:05:54;;;;;;;2.90;1.95;;;6.90;99.90;;;;;;5035122;28;20238;-90
2022/12/27 10:08:39;;;;;;;2.00;1.15;;;7.00;99.90;;;;;;5034987;28;20224;-91
2022/12/27 10:11:34;;;;;;;1.33;1.27;;;7.10;99.90;;;;;;5034866;28;20241;-89
2022/12/27 10:14:15;;;;;;;1.15;1.08;;;7.20;99.90;;;;;;5034877;28;20244;-90
2022/12/27 10:16:53;;;;;;;1.30;1.20;;;7.30;99.90;;;;;;5034640;28;20236;-92
2022/12/27 10:19:34;;;;;;;1.20;1.10;;;7.40;99.90;;;;;;5035438;28;20264;-91
2022/12/27 10:22:18;;;;;;;0.98;0.98;;;7.50;99.90;;;;;;5034928;28;20255;-89
2022/12/27 10:24:51;;;;;;;1.13;0.75;;;7.60;99.90;;;;;;5034975;28;20261;-91
2022/12/27 10:27:22;;;;;;;5.20;3.20;;;7.80;99.90;;;;;;5034944;28;20202;-90
2022/12/27 10:29:53;;;;;;;3.05;1.83;;;8.10;99.90;;;;;;5034680;28;20210;-89
2022/12/27 10:32:22;;;;;;;1.30;1.20;;;8.40;99.90;;;;;;5034878;28;20261;-90
2022/12/27 10:34:56;;;;;;;1.40;1.30;;;9.10;99.90;;;;;;5034584;28;20316;-90
2022/12/27 10:37:27;;;;;;;3.65;2.30;;;9.70;99.90;;;;;;5034243;28;20218;-90
2022/12/27 10:40:01;;;;;;;2.10;1.60;;;10.00;99.90;;;;;;5034621;28;20293;-89
2022/12/27 10:42:36;;;;;;;1.30;1.20;;;10.50;98.00;;;;;;5034274;28;20240;-91
2022/12/27 10:45:27;;;;;;;1.98;1.50;;;10.50;96.60;;;;;;5034455;28;20226;-90
2022/12/27 10:47:58;;;;;;;1.58;1.48;;;10.70;96.30;;;;;;5034047;28;20203;-90
2022/12/27 10:50:30;;;;;;;2.60;2.13;;;10.90;95.70;;;;;;5032117;28;20230;-89
2022/12/27 10:53:08;;;;;;;3.08;1.20;;;11.40;95.70;;;;;;5030024;28;20202;-96
2022/12/27 10:55:41;;;;;;;1.88;1.77;;;11.70;93.10;;;;;;5025752;28;20259;-93
2022/12/27 10:58:45;;;;;;;0.98;0.98;;;11.60;92.20;;;;;;5032738;28;20245;-94
2022/12/27 11:01:34;;;;;;;1.40;1.25;;;11.70;92.90;;;;;;5038217;28;20222;-96
2022/12/27 11:04:17;;;;;;;1.98;1.33;;;12.20;91.50;;;;;;5025778;28;20253;-96
2022/12/27 11:07:19;;;;;;;3.00;2.30;;;12.50;89.70;;;;;;5026511;28;20234;-95
2022/12/27 11:10:09;;;;;;;1.92;1.73;;;12.00;88.80;;;;;;5016373;28;20211;-96
2022/12/27 11:12:54;;;;;;;2.00;1.83;;;11.90;89.60;;;;;;5035199;28;20202;-96
2022/12/27 11:15:29;;;;;;;2.08;1.60;;;11.20;87.60;;;;;;5034227;28;20214;-96
2022/12/27 11:18:04;;;;;;;1.92;1.52;;;11.10;89.80;;;;;;5028480;28;20219;-95
2022/12/27 11:20:40;;;;;;;0.73;0.73;;;11.20;89.20;;;;;;5027012;28;20235;-96
2022/12/27 11:23:18;;;;;;;1.33;1.10;;;11.40;88.90;;;;;;5034128;28;20230;-96
2022/12/27 11:25:53;;;;;;;2.00;1.20;;;11.70;90.30;;;;;;5033809;28;20233;-95
2022/12/27 11:28:37;;;;;;;1.05;1.05;;;11.90;88.60;;;;;;5014215;28;20207;-95
2022/12/27 11:31:22;;;;;;;1.88;1.25;;;11.60;87.50;;;;;;5029230;28;20289;-95
2022/12/27 11:34:25;;;;;;;1.15;1.05;;;11.80;90.00;;;;;;5033575;28;20198;-95
2022/12/27 11:37:11;;;;;;;1.00;1.00;;;11.50;89.40;;;;;;5020346;28;20207;-95
2022/12/27 11:40:25;;;;;;;1.42;1.33;;;11.70;89.70;;;;;;5014482;28;20207;-95
2022/12/27 11:43:07;;;;;;;1.30;1.20;;;11.60;90.30;;;;;;5030080;28;20225;-95
2022/12/27 11:45:52;;;;;;;1.13;1.02;;;11.70;90.80;;;;;;5013784;28;20241;-95
2022/12/27 11:48:28;;;;;;;1.17;0.98;;;11.50;90.70;;;;;;5016744;28;20203;-95
2022/12/27 11:51:51;;;;;;;1.20;1.10;;;11.40;92.20;;;;;;5015647;28;20207;-96
2022/12/27 11:58:42;;;;;;;1.00;1.00;;;11.10;92.40;;;;;;5012937;28;20227;-95
2022/12/27 12:01:59;;;;;;;1.92;1.20;;;11.30;92.30;;;;;;5016782;28;20198;-96
2022/12/27 12:05:02;;;;;;;1.58;1.48;;;11.70;92.30;;;;;;5031119;28;20218;-95
2022/12/27 12:07:54;;;;;;;1.20;1.00;;;11.80;91.10;;;;;;5012264;28;20288;-96
2022/12/27 12:10:36;;;;;;;1.35;1.25;;;11.60;91.30;;;;;;5031209;28;20317;-96
2022/12/27 12:13:27;;;;;;;1.05;1.00;;;11.50;91.70;;;;;;5033529;28;20207;-96
2022/12/27 12:16:33;;;;;;;1.55;1.23;;;11.00;91.80;;;;;;5033870;28;20226;-94
2022/12/27 12:19:19;;;;;;;0.77;0.77;;;10.70;92.40;;;;;;5032884;28;20226;-96
2022/12/27 12:22:13;;;;;;;0.70;0.70;;;10.90;92.50;;;;;;5014153;28;20261;-96
2022/12/27 12:25:09;;;;;;;1.25;0.98;;;10.90;91.80;;;;;;5027912;28;20242;-93
2022/12/27 12:31:51;;;;;;;1.40;1.05;;;11.00;91.70;;;;;;5015059;28;20206;-96
2022/12/27 12:34:58;;;;;;;2.17;1.20;;;10.70;92.30;;;;;;4986896;28;20209;-96
2022/12/27 12:37:56;;;;;;;1.65;1.55;;;10.60;92.40;;;;;;5010735;28;20218;-92
2022/12/27 12:41:00;;;;;;;0.82;0.82;;;10.90;92.60;;;;;;5014791;28;20203;-92
2022/12/27 12:43:51;;;;;;;1.42;1.15;;;10.70;92.10;;;;;;5006912;28;25100;-92
2022/12/27 12:46:44;;;;;;;4.95;1.13;;;10.30;92.30;;;;;;5026791;28;20231;-92
2022/12/27 12:49:46;;;;;;;1.30;1.15;;;10.30;92.10;;;;;;5012970;28;20331;-92
2022/12/27 12:53:15;;;;;;;0.43;0.43;;;10.20;92.20;;;;;;5018998;28;20257;-92
2022/12/27 12:56:57;;;;;;;1.92;1.00;;;10.30;93.10;;;;;;5013238;28;20253;-92
2022/12/27 13:00:01;;;;;;;1.05;0.98;;;10.40;92.70;;;;;;5001403;28;20335;-92
2022/12/27 13:03:04;;;;;;;0.82;0.82;;;10.30;92.80;;;;;;5013125;28;20301;-92
2022/12/27 13:05:45;;;;;;;1.13;1.05;;;10.30;93.20;;;;;;5029939;28;20225;-91
2022/12/27 13:08:32;;;;;;;1.80;1.70;;;10.50;93.50;;;;;;5013117;28;20205;-92
2022/12/27 13:11:37;;;;;;;1.83;1.55;;;10.20;93.10;;;;;;5013087;28;20286;-92
2022/12/27 13:14:36;;;;;;;1.30;1.20;;;10.40;93.50;;;;;;5013302;28;20294;-91
2022/12/27 13:17:11;;;;;;;1.08;1.02;;;10.30;93.60;;;;;;5019168;28;20268;-94
2022/12/27 13:19:58;;;;;;;1.70;1.60;;;10.30;93.00;;;;;;5036348;28;20222;-92
2022/12/27 13:22:46;;;;;;;1.60;1.50;;;10.30;93.30;;;;;;5018261;28;20209;-91
2022/12/27 13:25:34;;;;;;;2.15;1.65;;;10.40;93.50;;;;;;5032722;28;20317;-91
2022/12/27 13:28:31;;;;;;;3.15;2.80;;;10.50;93.40;;;;;;5034874;28;20245;-91
2022/12/27 13:31:14;;;;;;;1.63;1.20;;;10.50;93.80;;;;;;5021524;28;20199;-94
2022/12/27 13:33:56;;;;;;;2.33;1.52;;;10.50;94.40;;;;;;5019739;28;20199;-94
2022/12/27 13:36:34;;;;;;;1.60;1.50;;;10.50;93.70;;;;;;5021484;28;20222;-96
2022/12/27 13:39:32;;;;;;;0.93;0.93;;;10.30;94.00;;;;;;5034484;28;20229;-95
2022/12/27 13:42:19;;;;;;;2.85;1.90;;;10.00;95.00;;;;;;5016450;28;20202;-96
2022/12/27 13:45:04;;;;;;;3.67;1.75;;;9.90;96.10;;;;;;5016303;28;20314;-94
2022/12/27 13:47:51;;;;;;;0.93;0.93;;;9.80;96.70;;;;;;5019764;28;20199;-95
2022/12/27 13:50:36;;;;;;;0.90;0.80;;;9.70;96.20;;;;;;5036072;28;20294;-96
2022/12/27 13:53:55;;;;;;;2.00;1.45;;;9.60;96.90;;;;;;5036281;28;20234;-95
2022/12/27 13:56:43;;;;;;;3.42;1.70;;;9.50;97.40;;;;;;5018442;28;20253;-95
2022/12/27 13:59:55;;;;;;;1.88;1.65;;;9.30;97.50;;;;;;5015695;28;20292;-94
2022/12/27 14:02:57;;;;;;;1.70;1.15;;;9.10;98.10;;;;;;5015582;28;20213;-96
2022/12/27 14:06:02;;;;;;;1.00;1.00;;;9.10;99.10;;;;;;5016208;28;20240;-96
2022/12/27 14:08:58;;;;;;;1.55;1.30;;;9.10;99.30;;;;;;5015802;28;20281;-90
2022/12/27 14:11:44;;;;;;;2.15;1.50;;;9.00;99.70;;;;;;5015872;28;20194;-90
2022/12/27 14:14:16;;;;;;;1.20;1.17;;;8.80;99.90;;;;;;5014880;28;20207;-91
2022/12/27 14:17:09;;;;;;;1.70;1.35;;;8.60;99.90;;;;;;5014701;28;20213;-89
2022/12/27 14:20:03;;;;;;;1.50;1.40;;;8.30;99.90;;;;;;5014570;28;20222;-91
2022/12/27 14:22:53;;;;;;;1.48;1.33;;;8.30;99.90;;;;;;5014472;28;20231;-91
2022/12/27 14:25:53;;;;;;;0.98;0.98;;;8.10;99.90;;;;;;5014587;28;20227;-91
2022/12/27 14:28:57;;;;;;;5.90;1.05;;;7.90;99.90;;;;;;5013763;28;20211;-91
2022/12/27 14:32:20;;;;;;;2.13;1.20;;;7.70;99.90;;;;;;5015004;28;20306;-91
2022/12/27 14:35:25;;;;;;;1.33;1.23;;;7.60;99.90;;;;;;5014510;28;20293;-91
2022/12/27 14:38:51;;;;;;;2.08;1.10;;;7.50;99.90;;;;;;5014643;28;20211;-91
2022/12/27 14:42:04;;;;;;;0.77;0.77;;;7.50;99.90;;;;;;4935289;29;20357;-91
2022/12/27 14:45:10;;;;;;;2.47;1.30;;;7.40;99.90;;;;;;4935033;29;20240;-91
2022/12/27 14:48:20;;;;;;;1.27;1.00;;;7.30;99.90;;;;;;5013966;28;20211;-89
2022/12/27 14:51:34;;;;;;;2.10;0.80;;;7.40;99.90;;;;;;5013924;28;20245;-89
2022/12/27 14:55:13;;;;;;;1.70;1.33;;;7.30;99.90;;;;;;4988770;28;20217;-89
2022/12/27 14:58:12;;;;;;;0.98;0.95;;;7.30;99.90;;;;;;5004273;28;20217;-89
2022/12/27 15:01:06;;;;;;;1.50;1.40;;;7.20;99.90;;;;;;5013838;28;20270;-89
2022/12/27 15:04:12;;;;;;;2.15;1.42;;;7.20;99.90;;;;;;5014231;28;20253;-89
2022/12/27 15:07:16;;;;;;;1.52;1.40;;;7.10;99.90;;;;;;5013979;28;20242;-92
2022/12/27 15:09:52;;;;;;;1.63;1.30;;;7.10;99.90;;;;;;4998078;28;20215;-89
2022/12/27 15:12:30;;;;;;;2.17;1.52;;;7.00;99.90;;;;;;5013967;28;20226;-91
2022/12/27 15:15:16;;;;;;;1.38;1.27;;;7.00;99.90;;;;;;5013897;28;20244;-91
2022/12/27 15:18:09;;;;;;;17.02;1.70;;;6.90;99.90;;;;;;5013388;28;20215;-91
2022/12/27 15:20:56;;;;;;;2.08;1.55;;;6.90;99.90;;;;;;5013669;28;20223;-91
2022/12/27 15:23:38;;;;;;;4.70;3.03;;;6.90;99.90;;;;;;5013823;28;20207;-89
2022/12/27 15:26:21;;;;;;;4.15;2.67;;;6.90;99.90;;;;;;5013718;28;20250;-91
2022/12/27 15:29:18;;;;;;;12.52;6.68;;;6.90;99.90;;;;;;5013805;28;20211;-91
2022/12/27 15:31:59;;;;;;;3.20;2.90;;;6.80;99.90;;;;;;5000720;28;20213;-91
2022/12/27 15:34:57;;;;;;;2.75;1.73;;;6.80;99.90;;;;;;5013508;28;20203;-90
2022/12/27 15:37:51;;;;;;;2.35;2.15;;;6.80;99.90;;;;;;5013475;28;20203;-91
2022/12/27 15:40:26;;;;;;;16.50;8.02;;;6.70;99.90;;;;;;5013245;28;20246;-91
2022/12/27 15:43:04;;;;;;;9.75;5.32;;;6.70;99.90;;;;;;5013573;28;20223;-91
2022/12/27 15:45:51;;;;;;;7.05;5.60;;;6.70;99.90;;;;;;5013321;28;20281;-91
2022/12/27 15:49:13;;;;;;;7.07;3.92;;;6.60;99.90;;;;;;5013104;28;20203;-91
2022/12/27 15:51:50;;;;;;;24.08;3.42;;;6.60;99.90;;;;;;5013166;28;20251;-91
2022/12/27 15:54:47;;;;;;;2.83;2.47;;;6.60;99.90;;;;;;5012902;28;20214;-89
2022/12/27 15:57:36;;;;;;;9.93;6.40;;;6.60;99.90;;;;;;5007899;28;20213;-91
2022/12/27 16:00:28;;;;;;;2.78;2.15;;;6.60;99.90;;;;;;5013011;28;20218;-90
2022/12/27 16:03:03;;;;;;;3.90;2.90;;;6.50;99.90;;;;;;5013651;28;20203;-90